Time;durP1;ratioP1;P1;durP2;ratioP2;P2;SDS_P1;SDS_P2;PMS_P1;PMS_P2;Temp;Humidity;BMP_temperature;BMP_pressure;BME280_temperature;BME280_humidity;BME280_pressure;Samples;Min_cycle;Max_cycle;Signal;HPM_P1;HPM_P2
2021/06/21 00:01:55;;;;;;;15.75;6.63;;;19.70;99.90;;;;;;5091317;28;20044;-85
2021/06/21 00:04:23;;;;;;;17.10;4.93;;;19.60;99.90;;;;;;5092521;28;20048;-84
2021/06/21 00:06:51;;;;;;;13.75;5.88;;;19.60;99.90;;;;;;5085612;28;20050;-84
2021/06/21 00:09:19;;;;;;;23.63;7.75;;;19.60;99.90;;;;;;5063883;28;20378;-84
2021/06/21 00:11:46;;;;;;;9.70;5.88;;;19.50;99.90;;;;;;5071618;28;20040;-84
2021/06/21 00:14:15;;;;;;;19.35;6.07;;;19.50;99.90;;;;;;5069267;28;20808;-85
2021/06/21 00:16:43;;;;;;;12.57;4.43;;;19.50;99.90;;;;;;5071507;28;20504;-85
2021/06/21 00:19:11;;;;;;;7.55;5.05;;;19.50;99.90;;;;;;5069981;28;20044;-85
2021/06/21 00:21:39;;;;;;;18.42;7.03;;;19.40;99.90;;;;;;5070251;28;20048;-84
2021/06/21 00:24:07;;;;;;;14.13;5.28;;;19.30;99.90;;;;;;5071739;28;20044;-84
2021/06/21 00:26:35;;;;;;;20.58;8.40;;;19.20;99.90;;;;;;5073456;28;20048;-84
2021/06/21 00:29:04;;;;;;;15.63;7.35;;;19.10;99.90;;;;;;5091831;28;20397;-84
2021/06/21 00:31:31;;;;;;;8.95;4.70;;;19.00;99.90;;;;;;5073034;28;20047;-84
2021/06/21 00:33:59;;;;;;;21.92;6.43;;;19.00;99.90;;;;;;5073225;28;20409;-84
2021/06/21 00:36:27;;;;;;;14.52;4.72;;;19.00;99.90;;;;;;5087022;28;20044;-84
2021/06/21 00:38:55;;;;;;;15.75;5.18;;;19.00;99.90;;;;;;5086861;28;20044;-84
2021/06/21 00:41:23;;;;;;;8.70;3.55;;;18.90;99.90;;;;;;5111529;28;20056;-84
2021/06/21 00:43:51;;;;;;;7.93;5.10;;;18.90;99.90;;;;;;5111313;28;20051;-84
2021/06/21 00:46:21;;;;;;;11.85;4.55;;;18.90;99.90;;;;;;5111452;28;20044;-84
2021/06/21 00:48:49;;;;;;;21.75;7.88;;;18.80;99.90;;;;;;5093865;28;20641;-84
2021/06/21 00:51:17;;;;;;;19.60;5.55;;;18.70;99.90;;;;;;5110719;28;20043;-84
2021/06/21 00:53:47;;;;;;;18.50;7.85;;;18.60;99.90;;;;;;5093457;28;20055;-85
2021/06/21 00:56:15;;;;;;;9.73;5.35;;;18.60;99.90;;;;;;5077052;28;20060;-84
2021/06/21 00:58:43;;;;;;;22.13;6.75;;;18.50;99.90;;;;;;5070992;28;20037;-84
2021/06/21 01:01:12;;;;;;;14.77;4.53;;;18.50;99.90;;;;;;5070818;28;20052;-84
2021/06/21 01:03:40;;;;;;;16.27;5.50;;;18.50;99.90;;;;;;5070576;28;20052;-84
2021/06/21 01:06:08;;;;;;;20.60;5.95;;;18.60;99.90;;;;;;5070331;28;20486;-84
2021/06/21 01:08:35;;;;;;;11.00;4.53;;;18.60;99.90;;;;;;5070625;28;20056;-84
2021/06/21 01:11:03;;;;;;;11.20;4.75;;;18.60;99.90;;;;;;5068845;28;20052;-84
2021/06/21 01:13:49;;;;;;;15.43;5.68;;;18.60;99.90;;;;;;5070860;28;20056;-84
2021/06/21 01:16:36;;;;;;;16.30;4.50;;;18.60;99.90;;;;;;5070899;28;20048;-85
2021/06/21 01:19:15;;;;;;;16.88;5.28;;;18.60;99.90;;;;;;5069229;28;20044;-85
2021/06/21 01:21:52;;;;;;;13.13;4.88;;;18.70;99.90;;;;;;5069322;28;20067;-85
2021/06/21 01:24:32;;;;;;;14.98;4.97;;;18.60;99.90;;;;;;5053240;28;20049;-84
2021/06/21 01:27:41;;;;;;;19.13;7.60;;;18.50;99.90;;;;;;5087904;28;20048;-85
2021/06/21 01:30:14;;;;;;;12.90;4.63;;;18.60;99.90;;;;;;5070463;28;20405;-85
2021/06/21 01:32:45;;;;;;;20.13;5.32;;;18.60;99.90;;;;;;5052912;28;20041;-85
2021/06/21 01:35:33;;;;;;;12.38;4.32;;;18.50;99.90;;;;;;5070154;28;20060;-85
2021/06/21 01:38:06;;;;;;;13.60;4.07;;;18.40;99.90;;;;;;5067985;28;20055;-83
2021/06/21 01:40:43;;;;;;;20.83;6.57;;;18.30;99.90;;;;;;5090697;28;20063;-84
2021/06/21 01:43:14;;;;;;;5.13;3.97;;;18.20;99.90;;;;;;5090449;28;20052;-84
2021/06/21 01:45:43;;;;;;;;;;;18.20;99.90;;;;;;5090768;28;20048;-84
2021/06/21 01:48:13;;;;;;;4.97;3.88;;;18.10;99.90;;;;;;5090274;28;19924;-84
2021/06/21 01:50:42;;;;;;;15.32;4.90;;;18.00;99.90;;;;;;5089796;28;20040;-84
2021/06/21 01:53:18;;;;;;;12.25;7.18;;;18.00;99.90;;;;;;5090286;28;20064;-84
2021/06/21 01:56:17;;;;;;;16.95;6.97;;;17.90;99.90;;;;;;5090137;28;20048;-84
2021/06/21 01:58:48;;;;;;;8.60;4.78;;;17.90;99.90;;;;;;5089992;28;20448;-84
2021/06/21 02:01:18;;;;;;;10.40;4.35;;;17.80;99.90;;;;;;5072400;28;20059;-84
2021/06/21 02:03:48;;;;;;;9.15;3.95;;;17.80;99.90;;;;;;5089650;28;20040;-84
2021/06/21 02:06:17;;;;;;;15.90;6.43;;;17.70;99.90;;;;;;5085201;28;20045;-84
2021/06/21 02:08:48;;;;;;;7.07;4.35;;;17.40;99.90;;;;;;5052546;28;20119;-84
2021/06/21 02:11:17;;;;;;;12.35;4.63;;;17.30;99.90;;;;;;5051775;28;20041;-84
2021/06/21 02:13:48;;;;;;;14.57;4.43;;;17.20;99.90;;;;;;5052051;28;20413;-84
2021/06/21 02:16:17;;;;;;;19.20;7.32;;;17.10;99.90;;;;;;5068905;28;20068;-84
2021/06/21 02:18:48;;;;;;;7.03;5.20;;;17.00;99.90;;;;;;5073071;28;20048;-84
2021/06/21 02:21:18;;;;;;;15.95;7.13;;;17.00;99.90;;;;;;5071323;28;20063;-83
2021/06/21 02:23:48;;;;;;;29.55;6.38;;;17.10;99.90;;;;;;5055396;28;20051;-84
2021/06/21 02:26:21;;;;;;;14.80;6.37;;;17.10;99.90;;;;;;5086573;28;20048;-84
2021/06/21 02:28:53;;;;;;;11.23;7.55;;;17.10;99.90;;;;;;5094428;28;20059;-84
2021/06/21 02:31:22;;;;;;;13.63;5.72;;;17.10;99.90;;;;;;5058303;28;20048;-84
2021/06/21 02:33:50;;;;;;;14.50;6.18;;;17.10;99.90;;;;;;5059049;28;20055;-84
2021/06/21 02:36:18;;;;;;;12.07;6.90;;;17.20;99.90;;;;;;5074664;28;20067;-85
2021/06/21 02:38:46;;;;;;;18.05;4.80;;;17.30;99.90;;;;;;5063198;28;20159;-82
2021/06/21 02:41:14;;;;;;;18.10;6.25;;;17.40;99.90;;;;;;5052140;28;20405;-83
2021/06/21 02:43:42;;;;;;;13.57;4.90;;;17.40;99.90;;;;;;5069074;28;20048;-83
2021/06/21 02:46:09;;;;;;;14.25;4.35;;;17.40;99.90;;;;;;5068530;28;20040;-83
2021/06/21 02:48:40;;;;;;;11.05;5.20;;;17.50;99.90;;;;;;5052585;28;20052;-83
2021/06/21 02:51:15;;;;;;;13.27;7.25;;;17.50;99.90;;;;;;5067000;28;20437;-82
2021/06/21 02:53:58;;;;;;;7.10;6.22;;;17.50;99.90;;;;;;5068834;28;20063;-83
2021/06/21 02:56:43;;;;;;;18.50;7.82;;;17.50;99.90;;;;;;5043577;28;20053;-83
2021/06/21 02:59:17;;;;;;;9.80;4.72;;;17.60;99.90;;;;;;5028663;28;20301;-83
2021/06/21 03:01:50;;;;;;;13.30;5.70;;;17.50;99.90;;;;;;5027717;28;20056;-83
2021/06/21 03:04:21;;;;;;;7.70;4.45;;;17.50;99.90;;;;;;5012632;28;20601;-83
2021/06/21 03:06:51;;;;;;;11.50;5.72;;;17.50;99.90;;;;;;5026818;28;20041;-81
2021/06/21 03:09:21;;;;;;;16.35;5.60;;;17.30;99.90;;;;;;5029004;28;20061;-84
2021/06/21 03:11:51;;;;;;;13.83;6.70;;;17.20;99.90;;;;;;5061495;28;20521;-83
2021/06/21 03:14:26;;;;;;;6.03;4.63;;;17.10;99.90;;;;;;5069726;28;20290;-83
2021/06/21 03:16:57;;;;;;;12.27;6.85;;;17.20;99.90;;;;;;5069944;28;20306;-84
2021/06/21 03:19:27;;;;;;;;;;;17.20;99.90;;;;;;5071675;28;20048;-84
2021/06/21 03:21:55;;;;;;;19.83;7.03;;;17.20;99.90;;;;;;5068437;28;19920;-83
2021/06/21 03:24:25;;;;;;;10.57;4.57;;;17.20;99.90;;;;;;5071388;28;20048;-82
2021/06/21 03:26:53;;;;;;;13.85;5.07;;;17.10;99.90;;;;;;5087802;28;20394;-84
2021/06/21 03:29:22;;;;;;;25.45;8.82;;;17.00;99.90;;;;;;5076069;28;20056;-82
2021/06/21 03:31:52;;;;;;;25.58;5.03;;;17.00;99.90;;;;;;5069624;28;20048;-83
2021/06/21 03:34:24;;;;;;;19.60;6.82;;;17.00;99.90;;;;;;5070385;28;20048;-84
2021/06/21 03:36:52;;;;;;;15.50;5.57;;;17.00;99.90;;;;;;5058718;28;20083;-84
2021/06/21 03:39:20;;;;;;;19.02;6.03;;;17.10;99.90;;;;;;5091061;28;20032;-84
2021/06/21 03:41:48;;;;;;;23.58;10.00;;;17.20;99.90;;;;;;5072602;28;20401;-83
2021/06/21 03:44:16;;;;;;;14.73;7.10;;;17.30;99.90;;;;;;5072672;28;20048;-83
2021/06/21 03:46:44;;;;;;;29.63;6.35;;;17.30;99.90;;;;;;5072457;28;20048;-84
2021/06/21 03:49:12;;;;;;;9.73;5.30;;;17.30;99.90;;;;;;5091079;28;20052;-83
2021/06/21 03:51:40;;;;;;;14.27;5.93;;;17.30;99.90;;;;;;5088331;28;20056;-84
2021/06/21 03:54:08;;;;;;;19.08;5.28;;;17.30;99.90;;;;;;5090861;28;20048;-83
2021/06/21 03:56:35;;;;;;;16.27;7.95;;;17.30;99.90;;;;;;5090806;28;20056;-83
2021/06/21 03:59:03;;;;;;;21.67;7.13;;;17.30;99.90;;;;;;5090816;28;20405;-83
2021/06/21 04:01:31;;;;;;;9.82;7.53;;;17.30;99.90;;;;;;5089261;28;20048;-83
2021/06/21 04:03:59;;;;;;;25.83;9.00;;;17.20;99.90;;;;;;5072771;28;20051;-83
2021/06/21 04:06:27;;;;;;;20.48;7.90;;;17.30;99.90;;;;;;5083245;28;20044;-83
2021/06/21 04:08:55;;;;;;;16.05;5.88;;;17.30;99.90;;;;;;5070637;28;20060;-84
2021/06/21 04:11:26;;;;;;;16.65;7.07;;;17.30;99.90;;;;;;5069478;28;20053;-83
2021/06/21 04:13:54;;;;;;;26.42;8.25;;;17.30;99.90;;;;;;5069344;28;20048;-83
2021/06/21 04:16:22;;;;;;;18.63;7.80;;;17.30;99.90;;;;;;5069642;28;20060;-83
2021/06/21 04:18:50;;;;;;;10.00;5.85;;;17.30;99.90;;;;;;5070128;28;20044;-83
2021/06/21 04:21:18;;;;;;;13.25;5.22;;;17.30;99.90;;;;;;5067689;28;20057;-82
2021/06/21 04:23:46;;;;;;;17.65;6.32;;;17.30;99.90;;;;;;5069821;28;20041;-84
2021/06/21 04:26:14;;;;;;;31.98;9.80;;;17.30;99.90;;;;;;5081739;28;20044;-82
2021/06/21 04:28:42;;;;;;;16.58;7.07;;;17.40;99.90;;;;;;5090385;28;20048;-83
2021/06/21 04:31:10;;;;;;;17.17;8.88;;;17.40;99.90;;;;;;5070248;28;20048;-83
2021/06/21 04:33:38;;;;;;;14.15;6.75;;;17.40;99.90;;;;;;5071572;28;20051;-83
2021/06/21 04:36:07;;;;;;;15.93;6.65;;;17.50;99.90;;;;;;5088825;28;20063;-82
2021/06/21 04:38:34;;;;;;;7.82;5.85;;;17.50;99.90;;;;;;5089420;28;20055;-83
2021/06/21 04:41:03;;;;;;;24.58;6.50;;;17.60;99.90;;;;;;5089404;28;20083;-82
2021/06/21 04:43:30;;;;;;;24.23;6.82;;;17.70;99.90;;;;;;5071833;28;20071;-81
2021/06/21 04:45:58;;;;;;;19.90;6.20;;;17.70;99.90;;;;;;5054614;28;20051;-83
2021/06/21 04:48:26;;;;;;;9.70;5.03;;;17.70;99.90;;;;;;5072157;28;20048;-83
2021/06/21 04:50:54;;;;;;;14.60;6.38;;;17.70;99.90;;;;;;5088098;28;20044;-82
2021/06/21 04:53:22;;;;;;;10.48;4.80;;;17.80;99.90;;;;;;5089534;28;20052;-82
2021/06/21 04:55:50;;;;;;;15.20;4.50;;;17.90;99.90;;;;;;5086649;28;20040;-83
2021/06/21 04:58:18;;;;;;;18.65;6.93;;;18.00;99.90;;;;;;5089872;28;20040;-82
2021/06/21 05:00:46;;;;;;;15.55;5.50;;;18.00;99.90;;;;;;5055187;28;20060;-83
2021/06/21 05:03:14;;;;;;;30.13;6.00;;;18.10;99.90;;;;;;5089841;28;20052;-82
2021/06/21 05:05:42;;;;;;;9.30;5.20;;;18.20;99.90;;;;;;5072060;28;20051;-82
2021/06/21 05:08:10;;;;;;;13.75;4.68;;;18.20;99.90;;;;;;5090210;28;20560;-83
2021/06/21 05:10:37;;;;;;;13.10;3.67;;;18.30;99.90;;;;;;5089926;28;20044;-83
2021/06/21 05:13:05;;;;;;;13.95;4.18;;;18.50;99.90;;;;;;5090528;28;20493;-82
2021/06/21 05:15:33;;;;;;;7.72;3.95;;;18.50;99.90;;;;;;5072392;28;20055;-82
2021/06/21 05:18:01;;;;;;;8.05;3.63;;;18.50;99.90;;;;;;5055521;28;20039;-82
2021/06/21 05:20:29;;;;;;;9.88;3.42;;;18.60;99.90;;;;;;5090428;28;20059;-82
2021/06/21 05:22:57;;;;;;;13.80;5.28;;;18.80;99.90;;;;;;5089450;28;20497;-84
2021/06/21 05:25:25;;;;;;;14.45;4.80;;;19.00;99.90;;;;;;5091061;28;20067;-83
2021/06/21 05:27:54;;;;;;;15.13;4.13;;;19.00;99.90;;;;;;5090489;28;20048;-84
2021/06/21 05:30:22;;;;;;;3.50;2.80;;;19.20;99.90;;;;;;5090107;28;20047;-85
2021/06/21 05:32:50;;;;;;;8.38;3.40;;;19.40;99.90;;;;;;5072370;28;20044;-83
2021/06/21 05:35:20;;;;;;;13.55;5.35;;;19.40;99.90;;;;;;5070866;28;20070;-84
2021/06/21 05:37:49;;;;;;;;;;;19.50;99.90;;;;;;5071874;28;20059;-84
2021/06/21 05:40:17;;;;;;;11.95;3.50;;;19.60;99.90;;;;;;5088979;28;19949;-84
2021/06/21 05:42:45;;;;;;;12.57;3.35;;;19.60;99.90;;;;;;5072190;28;20060;-83
2021/06/21 05:45:17;;;;;;;8.73;4.13;;;19.60;99.90;;;;;;5072046;28;20059;-85
2021/06/21 05:47:46;;;;;;;9.57;3.38;;;19.70;99.90;;;;;;5088169;28;20048;-82
2021/06/21 05:50:14;;;;;;;11.00;3.58;;;19.70;99.90;;;;;;5055066;28;20044;-83
2021/06/21 05:52:42;;;;;;;27.23;6.53;;;19.90;99.90;;;;;;5089438;28;20055;-83
2021/06/21 05:55:11;;;;;;;11.98;4.72;;;20.00;99.90;;;;;;5088857;28;20036;-83
2021/06/21 05:57:39;;;;;;;18.73;3.30;;;20.10;99.90;;;;;;5093540;28;20055;-83
2021/06/21 06:00:08;;;;;;;9.10;3.15;;;20.20;99.90;;;;;;5093575;28;20505;-82
2021/06/21 06:02:43;;;;;;;5.65;2.20;;;20.30;99.90;;;;;;5093992;28;20047;-83
2021/06/21 06:05:12;;;;;;;15.05;4.32;;;20.30;99.90;;;;;;5094870;28;20063;-82
2021/06/21 06:07:40;;;;;;;10.93;4.93;;;20.30;99.90;;;;;;5077966;28;20513;-83
2021/06/21 06:10:08;;;;;;;7.05;2.03;;;20.40;99.90;;;;;;5054862;28;20619;-83
2021/06/21 06:12:37;;;;;;;7.32;2.17;;;20.50;99.90;;;;;;5083258;28;20052;-83
2021/06/21 06:15:08;;;;;;;8.30;1.20;;;20.60;99.90;;;;;;5056591;28;20037;-83
2021/06/21 06:17:36;;;;;;;7.65;2.38;;;20.60;99.90;;;;;;5060360;28;20389;-82
2021/06/21 06:20:06;;;;;;;11.57;2.13;;;20.60;99.90;;;;;;5075366;28;20051;-82
2021/06/21 06:22:34;;;;;;;4.67;1.90;;;20.60;99.90;;;;;;5074378;28;20036;-81
2021/06/21 06:25:02;;;;;;;3.85;1.75;;;20.60;99.90;;;;;;5053595;28;20048;-83
2021/06/21 06:27:31;;;;;;;6.50;2.08;;;20.60;99.90;;;;;;5090755;28;20389;-83
2021/06/21 06:29:58;;;;;;;8.93;2.08;;;20.60;99.90;;;;;;5091846;28;20040;-83
2021/06/21 06:32:26;;;;;;;11.70;1.83;;;20.70;99.90;;;;;;5092701;28;20405;-83
2021/06/21 06:34:57;;;;;;;7.00;1.77;;;20.70;99.90;;;;;;5074043;28;20043;-84
2021/06/21 06:37:49;;;;;;;8.45;2.72;;;20.70;99.90;;;;;;5085682;28;20412;-82
2021/06/21 06:40:18;;;;;;;7.72;1.95;;;20.80;99.90;;;;;;5091693;28;20059;-84
2021/06/21 06:42:47;;;;;;;6.55;2.45;;;20.80;99.90;;;;;;5092204;28;20036;-83
2021/06/21 06:45:15;;;;;;;2.30;1.48;;;20.80;99.90;;;;;;5092821;28;20417;-84
2021/06/21 06:47:43;;;;;;;11.80;2.90;;;20.90;99.90;;;;;;5074106;28;20040;-84
2021/06/21 06:50:12;;;;;;;12.95;3.67;;;20.90;99.90;;;;;;5073829;28;20047;-83
2021/06/21 06:52:41;;;;;;;3.85;1.58;;;21.00;99.90;;;;;;5056789;28;20067;-84
2021/06/21 06:57:56;;;;;;;10.50;2.90;;;21.10;99.90;;;;;;5092003;28;20063;-83
2021/06/21 07:00:24;;;;;;;16.33;4.22;;;21.10;99.90;;;;;;5092455;28;20052;-84
2021/06/21 07:02:52;;;;;;;13.35;2.58;;;21.20;99.90;;;;;;5091155;28;20381;-85
2021/06/21 07:05:20;;;;;;;9.50;2.47;;;21.20;99.90;;;;;;5074432;28;20048;-83
2021/06/21 07:07:48;;;;;;;18.08;3.20;;;21.30;99.90;;;;;;5089954;28;20051;-85
2021/06/21 07:10:16;;;;;;;14.57;3.03;;;21.40;99.90;;;;;;5091330;28;20047;-84
2021/06/21 07:12:44;;;;;;;5.35;1.30;;;21.40;99.90;;;;;;5105015;28;20060;-84
2021/06/21 07:15:13;;;;;;;6.35;2.08;;;21.50;99.90;;;;;;5076980;28;20059;-83
2021/06/21 07:17:41;;;;;;;12.85;4.30;;;21.70;99.90;;;;;;5111619;28;20480;-78
2021/06/21 07:20:09;;;;;;;11.68;2.20;;;21.80;99.90;;;;;;5090321;28;20052;-78
2021/06/21 07:22:38;;;;;;;11.07;2.75;;;21.80;99.20;;;;;;5089917;28;20040;-80
2021/06/21 07:25:06;;;;;;;10.57;1.90;;;21.90;99.90;;;;;;5091979;28;20052;-79
2021/06/21 07:27:35;;;;;;;8.52;2.15;;;22.00;98.70;;;;;;5071825;28;20051;-78
2021/06/21 07:30:05;;;;;;;6.72;1.45;;;22.00;97.70;;;;;;5057927;28;20068;-78
2021/06/21 07:32:33;;;;;;;7.97;2.08;;;22.10;98.40;;;;;;5103786;28;20062;-78
2021/06/21 07:35:02;;;;;;;8.48;2.67;;;22.20;97.90;;;;;;5092566;28;20040;-77
2021/06/21 07:37:30;;;;;;;6.93;1.60;;;22.90;96.50;;;;;;5093959;28;20052;-77
2021/06/21 07:39:58;;;;;;;19.70;4.35;;;23.20;95.40;;;;;;5098664;28;20499;-77
2021/06/21 07:42:26;;;;;;;15.68;2.67;;;23.70;94.60;;;;;;5098784;28;20501;-78
2021/06/21 07:44:54;;;;;;;8.43;2.30;;;23.50;96.20;;;;;;5073715;28;20052;-78
2021/06/21 07:47:22;;;;;;;2.55;1.80;;;23.20;95.20;;;;;;5089225;28;20067;-78
2021/06/21 07:49:50;;;;;;;7.22;1.50;;;23.00;96.20;;;;;;5090151;28;20044;-78
2021/06/21 07:52:18;;;;;;;5.32;2.00;;;22.80;96.00;;;;;;5090629;28;20400;-78
2021/06/21 07:54:46;;;;;;;5.97;2.00;;;22.80;96.20;;;;;;5091057;28;20055;-78
2021/06/21 07:57:14;;;;;;;6.57;1.83;;;22.80;95.60;;;;;;5090635;28;20051;-78
2021/06/21 07:59:42;;;;;;;3.53;1.65;;;22.80;96.00;;;;;;5090050;28;20501;-78
2021/06/21 08:02:50;;;;;;;;;;;;;;;;;;;;;
2021/06/21 08:05:23;;;;;;;7.95;1.88;;;22.80;94.20;;;;;;5088494;28;20056;-77
2021/06/21 08:07:52;;;;;;;7.00;1.98;;;22.80;94.20;;;;;;5071010;28;20041;-77
2021/06/21 08:10:20;;;;;;;9.50;2.85;;;22.80;96.60;;;;;;5067846;28;20064;-78
2021/06/21 08:12:51;;;;;;;5.70;2.17;;;22.80;95.60;;;;;;5069630;28;20056;-78
2021/06/21 08:15:19;;;;;;;7.50;3.35;;;22.90;94.70;;;;;;5068582;28;20041;-78
2021/06/21 08:17:48;;;;;;;8.85;1.80;;;22.90;94.90;;;;;;5067862;28;20489;-77
2021/06/21 08:20:16;;;;;;;5.22;1.70;;;23.00;94.60;;;;;;5088922;28;20260;-78
2021/06/21 08:22:44;;;;;;;3.63;1.70;;;23.00;94.90;;;;;;5086781;28;20055;-79
2021/06/21 08:25:12;;;;;;;11.15;2.20;;;23.00;95.10;;;;;;5089677;28;20059;-77
2021/06/21 08:27:40;;;;;;;15.00;2.75;;;23.10;94.50;;;;;;5089403;28;20037;-78
2021/06/21 08:30:10;;;;;;;19.23;3.30;;;23.10;93.40;;;;;;5088331;28;20345;-77
2021/06/21 08:32:39;;;;;;;6.00;1.90;;;23.00;94.80;;;;;;5088702;28;20052;-76
2021/06/21 08:35:11;;;;;;;6.57;2.47;;;23.10;96.00;;;;;;5070670;28;20047;-77
2021/06/21 08:37:39;;;;;;;8.02;2.55;;;23.20;93.80;;;;;;5086809;28;20825;-77
2021/06/21 08:40:10;;;;;;;7.63;3.08;;;23.20;95.00;;;;;;5088197;28;20048;-82
2021/06/21 08:42:38;;;;;;;9.10;1.90;;;23.30;94.90;;;;;;5070315;28;20055;-80
2021/06/21 08:45:08;;;;;;;7.78;1.63;;;23.40;94.40;;;;;;5067314;28;20052;-77
2021/06/21 08:47:41;;;;;;;18.05;2.33;;;23.40;94.00;;;;;;5067825;28;20048;-77
2021/06/21 08:50:11;;;;;;;4.35;1.75;;;23.40;94.30;;;;;;5082283;28;20036;-78
2021/06/21 08:52:43;;;;;;;2.67;1.73;;;23.40;93.90;;;;;;5057182;28;20048;-77
2021/06/21 08:55:12;;;;;;;5.50;1.85;;;23.40;94.00;;;;;;5089338;28;20036;-77
2021/06/21 08:57:45;;;;;;;6.50;2.00;;;23.40;93.80;;;;;;5087893;28;20047;-78
2021/06/21 09:00:14;;;;;;;6.55;2.63;;;23.40;92.40;;;;;;5090065;28;20059;-78
2021/06/21 09:02:43;;;;;;;2.97;1.25;;;23.40;94.50;;;;;;5089583;28;20036;-78
2021/06/21 09:05:12;;;;;;;6.68;2.60;;;23.50;92.60;;;;;;5090193;28;20052;-77
2021/06/21 09:07:40;;;;;;;7.78;2.15;;;23.60;92.30;;;;;;5087617;28;20043;-77
2021/06/21 09:10:26;;;;;;;14.10;3.30;;;23.90;95.20;;;;;;5070364;28;20420;-81
2021/06/21 09:13:11;;;;;;;13.68;2.83;;;23.90;92.80;;;;;;5054222;28;20051;-81
2021/06/21 09:15:58;;;;;;;5.75;1.95;;;23.90;92.90;;;;;;5071251;28;20473;-81
2021/06/21 09:18:35;;;;;;;14.48;3.65;;;23.90;93.80;;;;;;5069323;28;20044;-77
2021/06/21 09:21:32;;;;;;;6.35;2.70;;;23.80;92.40;;;;;;5068743;28;20044;-78
2021/06/21 09:24:19;;;;;;;6.68;2.55;;;23.70;93.00;;;;;;5070591;28;20485;-76
2021/06/21 09:26:50;;;;;;;1.55;1.45;;;23.90;94.50;;;;;;5078040;28;20044;-76
2021/06/21 09:29:31;;;;;;;6.88;1.42;;;24.20;94.00;;;;;;5081972;28;20056;-76
2021/06/21 09:32:12;;;;;;;12.18;3.70;;;24.10;92.00;;;;;;5056186;28;20604;-77
2021/06/21 09:34:41;;;;;;;9.60;1.77;;;24.10;94.10;;;;;;5069948;28;20048;-77
2021/06/21 09:37:17;;;;;;;17.65;3.40;;;24.10;92.80;;;;;;5077791;28;20052;-77
2021/06/21 09:39:50;;;;;;;6.97;2.28;;;24.30;94.80;;;;;;5089306;28;20408;-82
2021/06/21 09:42:23;;;;;;;8.40;3.38;;;24.40;91.00;;;;;;5089476;28;20043;-83
2021/06/21 09:45:02;;;;;;;6.40;2.00;;;24.40;92.80;;;;;;5071113;28;20054;-85
2021/06/21 09:47:35;;;;;;;15.40;2.72;;;24.40;91.70;;;;;;5107328;28;20400;-76
2021/06/21 09:50:10;;;;;;;14.68;2.10;;;24.30;91.20;;;;;;5072577;28;20487;-77
2021/06/21 09:52:57;;;;;;;6.57;1.83;;;24.30;92.30;;;;;;5088858;28;20503;-76
2021/06/21 09:55:29;;;;;;;9.88;1.35;;;24.10;91.10;;;;;;5093681;28;20040;-76
2021/06/21 09:58:11;;;;;;;2.40;1.85;;;24.00;91.50;;;;;;5079560;28;20035;-76
2021/06/21 10:00:46;;;;;;;14.02;2.75;;;24.10;92.90;;;;;;5088479;28;20048;-76
2021/06/21 10:03:20;;;;;;;4.63;1.88;;;24.20;93.40;;;;;;5099532;28;20056;-77
2021/06/21 10:06:09;;;;;;;12.38;2.95;;;24.50;93.00;;;;;;5101347;28;20297;-78
2021/06/21 10:08:48;;;;;;;5.35;1.65;;;24.70;92.20;;;;;;5069304;28;20063;-77
2021/06/21 10:11:37;;;;;;;11.55;1.83;;;24.80;91.70;;;;;;5068445;28;20049;-76
2021/06/21 10:14:07;;;;;;;4.03;1.60;;;24.80;91.10;;;;;;5068207;28;20045;-77
2021/06/21 10:16:36;;;;;;;9.63;1.48;;;24.70;91.90;;;;;;5066942;28;20067;-78
2021/06/21 10:19:06;;;;;;;5.72;2.67;;;24.70;90.50;;;;;;5067469;28;20048;-78
2021/06/21 10:21:36;;;;;;;10.82;2.85;;;24.60;90.60;;;;;;5064791;28;20056;-78
2021/06/21 10:24:05;;;;;;;4.38;1.60;;;24.40;90.50;;;;;;5067753;28;20056;-77
2021/06/21 10:26:33;;;;;;;13.90;2.25;;;24.40;91.70;;;;;;5082163;28;20044;-77
2021/06/21 10:29:03;;;;;;;17.02;2.72;;;24.50;90.40;;;;;;5087353;28;20397;-79
2021/06/21 10:31:32;;;;;;;11.85;2.65;;;24.60;91.90;;;;;;5087024;28;20427;-79
2021/06/21 10:34:04;;;;;;;12.55;3.92;;;24.90;90.90;;;;;;5087021;28;20040;-77
2021/06/21 10:36:45;;;;;;;8.55;1.45;;;25.00;90.40;;;;;;5085837;28;20036;-78
2021/06/21 10:39:16;;;;;;;8.13;2.95;;;25.00;88.70;;;;;;5087205;28;20040;-77
2021/06/21 10:42:10;;;;;;;7.90;1.80;;;24.90;90.00;;;;;;5081446;28;20040;-77
2021/06/21 10:44:38;;;;;;;8.35;1.50;;;24.90;90.40;;;;;;5072979;28;20059;-78
2021/06/21 10:47:38;;;;;;;2.33;0.93;;;24.90;92.00;;;;;;5090007;28;20079;-78
2021/06/21 10:50:15;;;;;;;;;;;24.90;91.60;;;;;;5090110;28;20032;-78
2021/06/21 10:52:48;;;;;;;6.68;1.83;;;25.00;90.40;;;;;;5089081;28;19920;-77
2021/06/21 10:55:22;;;;;;;8.98;2.25;;;25.10;88.80;;;;;;5088494;28;20051;-77
2021/06/21 10:58:08;;;;;;;17.17;1.70;;;25.10;90.00;;;;;;5069904;28;20052;-78
2021/06/21 11:01:17;;;;;;;5.53;1.75;;;25.10;87.00;;;;;;5062485;28;20040;-88
2021/06/21 11:04:32;;;;;;;6.78;1.60;;;25.10;89.30;;;;;;5012546;22;20530;-90
2021/06/21 11:07:19;;;;;;;6.43;3.72;;;25.10;86.80;;;;;;5028038;28;20048;-78
2021/06/21 11:09:56;;;;;;;9.98;1.35;;;25.20;90.80;;;;;;5028857;28;20068;-78
2021/06/21 11:12:24;;;;;;;3.47;1.30;;;25.40;88.20;;;;;;5029382;28;20372;-78
2021/06/21 11:15:07;;;;;;;7.07;1.83;;;25.40;88.90;;;;;;5011544;28;20387;-77
2021/06/21 11:17:50;;;;;;;8.52;2.38;;;25.40;89.30;;;;;;5029099;28;20053;-78
2021/06/21 11:20:36;;;;;;;6.82;2.83;;;25.50;87.60;;;;;;5008895;28;20058;-78
2021/06/21 11:23:09;;;;;;;7.15;1.58;;;25.50;88.20;;;;;;5026655;28;20346;-78
2021/06/21 11:25:43;;;;;;;5.93;1.48;;;25.50;88.90;;;;;;5030026;28;20402;-79
2021/06/21 11:28:34;;;;;;;12.57;2.08;;;25.50;89.10;;;;;;5007015;28;20041;-80
2021/06/21 11:31:26;;;;;;;8.73;2.45;;;25.50;87.00;;;;;;5008296;28;20061;-81
2021/06/21 11:33:56;;;;;;;10.70;1.95;;;25.30;85.20;;;;;;5013654;28;20246;-79
2021/06/21 11:36:44;;;;;;;59.53;7.30;;;25.20;88.10;;;;;;5027459;28;20049;-82
2021/06/21 11:39:34;;;;;;;3.65;1.65;;;25.20;85.40;;;;;;5010782;28;20049;-82
2021/06/21 11:42:07;;;;;;;7.28;2.45;;;25.20;85.60;;;;;;5027169;28;20513;-80
2021/06/21 11:47:19;;;;;;;4.03;1.35;;;25.30;89.20;;;;;;5031043;28;20045;-80
2021/06/21 11:49:54;;;;;;;6.22;1.25;;;25.30;88.90;;;;;;5031313;28;20045;-79
2021/06/21 11:52:31;;;;;;;5.18;2.22;;;25.30;86.50;;;;;;5029943;28;20061;-81
2021/06/21 11:55:15;;;;;;;4.20;2.63;;;25.50;86.90;;;;;;5030226;28;20410;-82
2021/06/21 11:57:48;;;;;;;11.25;2.58;;;25.70;82.00;;;;;;5030668;28;20497;-83
2021/06/21 12:00:29;;;;;;;4.85;1.75;;;25.70;87.00;;;;;;4997510;28;20056;-83
2021/06/21 12:03:10;;;;;;;5.90;1.77;;;25.80;84.90;;;;;;4997778;28;20052;-83
2021/06/21 12:05:38;;;;;;;12.35;3.42;;;25.90;85.80;;;;;;5012922;28;20076;-81
2021/06/21 12:08:14;;;;;;;12.48;2.33;;;25.80;84.10;;;;;;5009866;28;20054;-80
2021/06/21 12:10:43;;;;;;;3.75;1.65;;;25.80;88.60;;;;;;5010552;28;20431;-80
2021/06/21 12:13:11;;;;;;;4.55;1.90;;;25.80;85.50;;;;;;5011252;28;20046;-81
2021/06/21 12:15:41;;;;;;;8.32;1.17;;;25.80;85.60;;;;;;5015803;28;20038;-82
2021/06/21 12:18:11;;;;;;;6.25;2.00;;;25.70;83.80;;;;;;5012754;28;20050;-81
2021/06/21 12:20:39;;;;;;;5.28;1.98;;;25.80;88.00;;;;;;5011481;28;20454;-80
2021/06/21 12:23:12;;;;;;;8.02;1.88;;;25.80;83.90;;;;;;5011555;28;20410;-80
2021/06/21 12:25:43;;;;;;;9.68;2.13;;;25.80;85.00;;;;;;5030128;28;20060;-81
2021/06/21 12:28:11;;;;;;;;;;;25.80;82.70;;;;;;5031495;28;20491;-82
2021/06/21 12:31:54;;;;;;;8.13;1.98;;;25.70;90.20;;;;;;4930575;29;19937;-84
2021/06/21 12:35:12;;;;;;;;;;;;;;;;;;;;;
2021/06/21 12:38:01;;;;;;;29.38;3.10;;;25.90;84.40;;;;;;4951375;28;20535;-83
2021/06/21 12:40:42;;;;;;;5.72;1.73;;;25.90;86.60;;;;;;4963827;28;20054;-83
2021/06/21 12:43:13;;;;;;;3.55;2.85;;;25.90;86.40;;;;;;4952010;28;20497;-82
2021/06/21 12:45:56;;;;;;;9.52;2.88;;;26.00;89.00;;;;;;4974174;28;20056;-82
2021/06/21 12:48:40;;;;;;;;;;;26.20;88.00;;;;;;4990200;28;20082;-84
2021/06/21 12:52:17;;;;;;;17.25;2.85;;;26.20;89.10;;;;;;4926606;28;19930;-82
2021/06/21 12:55:44;;;;;;;9.23;2.45;;;26.30;83.80;;;;;;4933257;28;20046;-83
2021/06/21 13:03:59;;;;;;;8.48;1.92;;;26.30;83.20;;;;;;5029392;22;20510;-86
2021/06/21 13:06:39;;;;;;;13.43;2.70;;;26.30;87.00;;;;;;4994225;28;20407;-86
2021/06/21 13:09:16;;;;;;;7.30;2.78;;;26.40;85.30;;;;;;4991005;28;20069;-84
2021/06/21 13:11:59;;;;;;;35.70;3.58;;;26.40;85.40;;;;;;4988973;28;20046;-83
2021/06/21 13:15:15;;;;;;;11.25;2.20;;;26.40;85.50;;;;;;4960749;28;20045;-84
2021/06/21 13:21:16;;;;;;;6.13;1.63;;;26.40;85.40;;;;;;5234229;23;20059;-84
2021/06/21 13:24:02;;;;;;;5.00;1.65;;;26.50;82.50;;;;;;4907349;29;20043;-86
2021/06/21 13:36:04;;;;;;;12.75;3.45;;;26.60;83.60;;;;;;4793617;29;20054;-82
2021/06/21 13:38:43;;;;;;;16.17;2.47;;;26.60;81.20;;;;;;4795759;29;20042;-83
2021/06/21 13:41:22;;;;;;;8.00;2.28;;;26.60;85.90;;;;;;4838414;29;20053;-83